Time;durP1;ratioP1;P1;durP2;ratioP2;P2;SDS_P1;SDS_P2;PMS_P1;PMS_P2;Temp;Humidity;BMP_temperature;BMP_pressure;BME280_temperature;BME280_humidity;BME280_pressure;Samples;Min_cycle;Max_cycle;Signal;HPM_P1;HPM_P2
2023/07/12 00:00:45;;;;;;;10.95;6.53;;;25.50;99.90;;;;;;4987274;28;20473;-70
2023/07/12 00:03:11;;;;;;;9.13;6.82;;;25.50;99.90;;;;;;4988075;28;20058;-70
2023/07/12 00:05:36;;;;;;;10.15;5.78;;;25.50;99.90;;;;;;4989603;28;20080;-70
2023/07/12 00:08:04;;;;;;;11.73;5.53;;;25.60;99.90;;;;;;4989111;28;20034;-70
2023/07/12 00:10:36;;;;;;;11.23;4.32;;;25.80;99.90;;;;;;4989002;28;21035;-70
2023/07/12 00:13:02;;;;;;;11.13;4.07;;;25.80;99.90;;;;;;4988317;28;20026;-70
2023/07/12 00:15:33;;;;;;;10.88;4.05;;;25.40;99.90;;;;;;4988900;28;20030;-70
2023/07/12 00:17:58;;;;;;;6.32;3.60;;;24.80;99.90;;;;;;4988826;28;20030;-70
2023/07/12 00:20:33;;;;;;;11.02;5.30;;;24.70;99.90;;;;;;4987969;28;20037;-70
2023/07/12 00:22:59;;;;;;;10.10;5.40;;;24.40;99.90;;;;;;4989018;28;20066;-70
2023/07/12 00:25:31;;;;;;;8.18;4.95;;;24.20;99.90;;;;;;4989518;28;20069;-70
2023/07/12 00:27:58;;;;;;;8.00;5.07;;;24.00;99.90;;;;;;4987729;28;20026;-70
2023/07/12 00:30:33;;;;;;;10.60;5.57;;;23.70;99.90;;;;;;4988293;28;20112;-70
2023/07/12 00:33:03;;;;;;;9.57;5.13;;;23.50;99.90;;;;;;4987879;28;20038;-70
2023/07/12 00:35:30;;;;;;;10.57;5.65;;;23.50;99.90;;;;;;4987808;28;20034;-70
2023/07/12 00:37:59;;;;;;;8.02;5.65;;;23.30;99.90;;;;;;4988006;28;20117;-70
2023/07/12 00:40:55;;;;;;;10.82;5.93;;;23.20;99.90;;;;;;4988480;28;20031;-70
2023/07/12 00:43:25;;;;;;;11.77;6.03;;;23.10;99.90;;;;;;4988471;28;20448;-70
2023/07/12 00:45:52;;;;;;;10.13;5.45;;;22.90;99.90;;;;;;4986957;28;20042;-70
2023/07/12 00:48:19;;;;;;;19.75;6.07;;;22.70;99.90;;;;;;4987478;28;20030;-71
2023/07/12 00:50:49;;;;;;;15.73;6.75;;;22.80;99.90;;;;;;4988460;28;20034;-70
2023/07/12 00:53:23;;;;;;;11.82;5.20;;;22.70;99.90;;;;;;4987648;28;20030;-71
2023/07/12 00:56:09;;;;;;;11.40;6.35;;;22.40;99.90;;;;;;4988703;28;20432;-70
2023/07/12 00:58:41;;;;;;;12.23;4.53;;;22.10;99.90;;;;;;4987503;28;20034;-70
2023/07/12 01:01:09;;;;;;;11.38;4.63;;;21.40;99.90;;;;;;4988688;28;20038;-70
2023/07/12 01:03:38;;;;;;;11.40;4.13;;;21.20;99.90;;;;;;4988769;28;20117;-70
2023/07/12 01:06:06;;;;;;;13.55;3.92;;;21.30;99.90;;;;;;4984877;28;20030;-70
2023/07/12 01:08:32;;;;;;;11.82;3.75;;;21.30;99.90;;;;;;4986736;28;20498;-70
2023/07/12 01:11:02;;;;;;;8.60;4.53;;;21.20;99.90;;;;;;4988425;28;20038;-70
2023/07/12 01:13:29;;;;;;;10.18;4.80;;;21.30;99.90;;;;;;4988461;28;20027;-70
2023/07/12 01:15:58;;;;;;;8.60;3.78;;;21.10;99.90;;;;;;4986369;28;20034;-70
2023/07/12 01:18:23;;;;;;;21.83;4.75;;;21.20;99.90;;;;;;4989754;28;20033;-69
2023/07/12 01:21:14;;;;;;;8.98;4.28;;;21.30;99.90;;;;;;4987483;28;20400;-69
2023/07/12 01:23:41;;;;;;;10.02;4.22;;;20.50;99.90;;;;;;4987578;28;20556;-69
2023/07/12 01:26:14;;;;;;;8.20;3.38;;;20.60;99.90;;;;;;4987206;28;20037;-70
2023/07/12 01:28:40;;;;;;;;;;;20.60;99.90;;;;;;4987727;28;20097;-70
2023/07/12 01:31:06;;;;;;;16.25;4.80;;;20.80;99.90;;;;;;4988891;28;19910;-70
2023/07/12 01:33:32;;;;;;;17.40;5.70;;;20.70;99.90;;;;;;4988526;28;20037;-70
2023/07/12 01:35:57;;;;;;;9.55;3.70;;;20.80;99.90;;;;;;4986949;28;20396;-69
2023/07/12 01:38:23;;;;;;;10.32;3.45;;;20.50;99.90;;;;;;4988972;28;20469;-69
2023/07/12 01:40:49;;;;;;;12.30;4.78;;;20.40;99.90;;;;;;4988006;28;20034;-70
2023/07/12 01:43:14;;;;;;;10.80;4.15;;;20.20;99.90;;;;;;4986400;28;20097;-69
2023/07/12 01:45:40;;;;;;;9.00;3.60;;;20.40;99.90;;;;;;4991248;28;20564;-69
2023/07/12 01:48:06;;;;;;;14.32;4.50;;;20.60;99.90;;;;;;4991368;28;20034;-69
2023/07/12 01:50:31;;;;;;;6.93;3.50;;;20.60;99.90;;;;;;4991743;28;20030;-69
2023/07/12 01:52:57;;;;;;;6.57;3.22;;;20.40;99.90;;;;;;4992531;28;20092;-69
2023/07/12 01:55:23;;;;;;;11.75;4.20;;;20.40;99.90;;;;;;4991551;28;20042;-69
2023/07/12 01:57:48;;;;;;;10.15;3.50;;;20.50;99.90;;;;;;4990978;28;20030;-70
2023/07/12 02:00:14;;;;;;;10.15;3.08;;;20.30;99.90;;;;;;4990625;28;20096;-69
2023/07/12 02:02:40;;;;;;;8.45;3.70;;;20.30;99.90;;;;;;4990667;28;20499;-69
2023/07/12 02:05:06;;;;;;;14.73;3.53;;;20.20;99.90;;;;;;4989965;28;20027;-70
2023/07/12 02:07:32;;;;;;;12.18;3.83;;;20.10;99.90;;;;;;4990976;28;20030;-70
2023/07/12 02:10:08;;;;;;;8.52;2.90;;;20.30;99.90;;;;;;4990663;28;20029;-70
2023/07/12 02:12:34;;;;;;;10.07;3.42;;;20.00;99.90;;;;;;4990880;28;20559;-70
2023/07/12 02:15:00;;;;;;;10.82;3.65;;;20.00;99.90;;;;;;4991674;28;20101;-70
2023/07/12 02:17:25;;;;;;;14.38;3.22;;;20.20;99.90;;;;;;4992083;28;20035;-70
2023/07/12 02:19:51;;;;;;;7.53;3.13;;;20.40;99.90;;;;;;4991885;28;20106;-69
2023/07/12 02:22:16;;;;;;;14.95;3.38;;;20.30;99.90;;;;;;4989063;28;20158;-69
2023/07/12 02:24:42;;;;;;;9.32;4.05;;;20.50;99.90;;;;;;4990969;28;20026;-69
2023/07/12 02:27:08;;;;;;;9.38;3.22;;;20.40;99.90;;;;;;4990202;28;20027;-69
2023/07/12 02:29:33;;;;;;;7.22;2.85;;;20.20;99.90;;;;;;4992020;28;20050;-69
2023/07/12 02:31:59;;;;;;;6.68;2.92;;;20.20;99.90;;;;;;4989263;28;20124;-69
2023/07/12 02:34:24;;;;;;;7.47;2.65;;;20.40;99.90;;;;;;4990111;28;20049;-69
2023/07/12 02:36:50;;;;;;;7.78;3.20;;;20.30;99.90;;;;;;4992157;28;20034;-70
2023/07/12 02:39:16;;;;;;;8.27;3.78;;;20.40;99.90;;;;;;4990861;28;20022;-69
2023/07/12 02:41:41;;;;;;;8.60;3.50;;;20.40;99.90;;;;;;4989812;28;20035;-69
2023/07/12 02:44:07;;;;;;;9.13;3.53;;;20.40;99.90;;;;;;4990534;28;20034;-70
2023/07/12 02:46:33;;;;;;;8.32;3.03;;;20.50;99.90;;;;;;4991150;28;20023;-69
2023/07/12 02:48:58;;;;;;;9.23;3.80;;;20.50;99.90;;;;;;4990493;28;20034;-70
2023/07/12 02:51:24;;;;;;;10.27;3.38;;;20.50;99.90;;;;;;4991452;28;20049;-69
2023/07/12 02:53:50;;;;;;;7.47;3.38;;;20.60;99.90;;;;;;4985470;28;20104;-69
2023/07/12 02:56:15;;;;;;;8.95;4.03;;;20.60;99.90;;;;;;4989603;28;20165;-69
2023/07/12 02:58:41;;;;;;;9.55;3.67;;;20.20;99.90;;;;;;4992143;28;20451;-69
2023/07/12 03:01:07;;;;;;;10.90;3.85;;;19.90;99.90;;;;;;4986395;28;20116;-70
2023/07/12 03:03:32;;;;;;;9.43;3.90;;;19.90;99.90;;;;;;4984869;28;20197;-69
2023/07/12 03:06:06;;;;;;;13.75;4.10;;;20.20;99.90;;;;;;4986103;28;20030;-69
2023/07/12 03:08:32;;;;;;;;;;;20.30;99.90;;;;;;4985515;28;20369;-69
2023/07/12 03:10:58;;;;;;;8.38;3.55;;;20.60;99.90;;;;;;4984924;28;19910;-69
2023/07/12 03:13:24;;;;;;;8.38;3.47;;;20.50;99.90;;;;;;4984913;28;20120;-69
2023/07/12 03:15:49;;;;;;;7.78;3.00;;;20.50;99.90;;;;;;4985917;28;20532;-69
2023/07/12 03:18:15;;;;;;;11.68;3.53;;;20.60;99.90;;;;;;4982448;28;20531;-69
2023/07/12 03:20:41;;;;;;;9.07;3.72;;;20.30;99.90;;;;;;4983373;28;20108;-69
2023/07/12 03:23:07;;;;;;;7.78;3.88;;;20.40;99.90;;;;;;4983756;28;20031;-69
2023/07/12 03:25:32;;;;;;;6.80;3.72;;;20.50;99.90;;;;;;4984614;28;20053;-69
2023/07/12 03:27:58;;;;;;;7.78;3.75;;;20.40;99.90;;;;;;4984911;28;20062;-69
2023/07/12 03:30:24;;;;;;;8.77;4.32;;;20.40;99.90;;;;;;4983537;28;20077;-68
2023/07/12 03:32:50;;;;;;;8.48;3.92;;;20.40;99.90;;;;;;4982527;28;20480;-69
2023/07/12 03:35:16;;;;;;;10.27;4.20;;;20.50;99.90;;;;;;4983526;28;20045;-69
2023/07/12 03:37:42;;;;;;;7.05;3.65;;;20.60;99.90;;;;;;4983061;28;20045;-69
2023/07/12 03:40:08;;;;;;;6.30;2.95;;;20.60;99.90;;;;;;4981635;28;20410;-69
2023/07/12 03:42:34;;;;;;;7.55;3.50;;;20.30;99.90;;;;;;4983202;28;20069;-70
2023/07/12 03:45:00;;;;;;;6.78;3.47;;;20.20;99.90;;;;;;4983103;28;20464;-69
2023/07/12 03:47:26;;;;;;;8.60;4.50;;;20.20;99.90;;;;;;4982914;28;20146;-69
2023/07/12 03:49:53;;;;;;;7.45;3.80;;;20.10;99.90;;;;;;4984166;28;20034;-69
2023/07/12 03:52:18;;;;;;;6.63;4.03;;;20.30;99.90;;;;;;4985883;28;20469;-69
2023/07/12 03:54:44;;;;;;;7.28;3.95;;;20.30;99.90;;;;;;4985528;28;20046;-69
2023/07/12 03:57:10;;;;;;;7.68;4.13;;;20.00;99.90;;;;;;4984656;28;20504;-70
2023/07/12 03:59:35;;;;;;;7.68;4.28;;;20.40;99.90;;;;;;4982544;28;20034;-69
2023/07/12 04:02:01;;;;;;;12.98;4.22;;;20.60;99.90;;;;;;4982470;28;20041;-69
2023/07/12 04:04:27;;;;;;;10.77;4.13;;;20.60;99.90;;;;;;4982569;28;20022;-69
2023/07/12 04:06:52;;;;;;;7.07;3.92;;;20.80;99.90;;;;;;4981107;28;20113;-70
2023/07/12 04:09:18;;;;;;;6.85;4.15;;;21.00;99.90;;;;;;4981843;28;20029;-69
2023/07/12 04:11:43;;;;;;;7.60;4.28;;;21.00;99.90;;;;;;4983583;28;20026;-69
2023/07/12 04:14:09;;;;;;;8.85;4.93;;;21.00;99.90;;;;;;4980526;28;20034;-69
2023/07/12 04:16:35;;;;;;;8.88;4.95;;;21.10;99.90;;;;;;4982049;28;20034;-69
2023/07/12 04:19:01;;;;;;;6.82;4.18;;;20.90;99.90;;;;;;4982308;28;20042;-69
2023/07/12 04:21:26;;;;;;;9.52;4.80;;;20.70;99.90;;;;;;4980948;28;20038;-69
2023/07/12 04:23:53;;;;;;;6.43;3.58;;;20.50;99.90;;;;;;4980660;28;20172;-69
2023/07/12 04:26:20;;;;;;;7.90;4.28;;;20.80;99.90;;;;;;4983028;28;20030;-69
2023/07/12 04:28:49;;;;;;;10.00;4.00;;;20.90;99.90;;;;;;4981284;28;20050;-69
2023/07/12 04:31:16;;;;;;;9.52;4.50;;;20.70;99.90;;;;;;4982145;28;20455;-69
2023/07/12 04:33:42;;;;;;;7.80;3.88;;;20.50;99.90;;;;;;4981787;28;20027;-69
2023/07/12 04:36:10;;;;;;;9.63;4.70;;;20.50;99.90;;;;;;4981241;28;20446;-70
2023/07/12 04:38:37;;;;;;;7.55;3.88;;;20.40;99.90;;;;;;4980589;28;20121;-70
2023/07/12 04:41:03;;;;;;;10.20;5.05;;;20.40;99.90;;;;;;4980215;28;20204;-69
2023/07/12 04:43:30;;;;;;;8.00;4.05;;;20.50;99.90;;;;;;4979319;28;20026;-69
2023/07/12 04:45:56;;;;;;;8.93;3.92;;;20.60;99.90;;;;;;4979252;28;20060;-69
2023/07/12 04:48:23;;;;;;;8.02;4.10;;;20.70;99.90;;;;;;4981911;28;20066;-70
2023/07/12 04:50:53;;;;;;;9.45;3.92;;;20.70;99.90;;;;;;4981672;28;20516;-70
2023/07/12 04:53:20;;;;;;;8.20;4.30;;;20.70;99.90;;;;;;4981766;28;20596;-70
2023/07/12 04:55:46;;;;;;;7.50;4.30;;;20.70;99.90;;;;;;4981145;28;20034;-69
2023/07/12 04:58:13;;;;;;;6.85;3.30;;;20.70;99.90;;;;;;4975551;28;20022;-69
2023/07/12 05:00:39;;;;;;;10.13;3.90;;;20.70;99.90;;;;;;4979967;28;20520;-69
2023/07/12 05:03:05;;;;;;;7.75;3.65;;;20.70;99.90;;;;;;4980423;28;20030;-71
2023/07/12 05:05:30;;;;;;;14.48;4.30;;;20.70;99.90;;;;;;4982803;28;20622;-69
2023/07/12 05:07:56;;;;;;;9.13;4.30;;;20.80;99.90;;;;;;4986478;28;20064;-69
2023/07/12 05:10:22;;;;;;;7.70;3.92;;;20.60;99.90;;;;;;4979708;28;20030;-69
2023/07/12 05:12:48;;;;;;;9.40;4.43;;;20.50;99.90;;;;;;4977004;28;20138;-70
2023/07/12 05:15:16;;;;;;;7.60;3.95;;;20.30;99.90;;;;;;4980045;28;20129;-70
2023/07/12 05:17:42;;;;;;;9.35;4.05;;;20.40;99.90;;;;;;4978660;28;20465;-70
2023/07/12 05:20:10;;;;;;;6.30;3.80;;;20.50;99.90;;;;;;4976715;28;20137;-70
2023/07/12 05:22:36;;;;;;;9.23;3.75;;;20.50;99.90;;;;;;4980642;28;20456;-70
2023/07/12 05:25:02;;;;;;;8.35;3.78;;;20.60;99.90;;;;;;4979868;28;20038;-70
2023/07/12 05:27:28;;;;;;;8.27;4.55;;;20.70;99.90;;;;;;4980427;28;20645;-69
2023/07/12 05:29:53;;;;;;;6.85;3.85;;;20.50;99.90;;;;;;4978622;28;20046;-69
2023/07/12 05:32:19;;;;;;;10.93;4.60;;;20.30;99.90;;;;;;4980754;28;20030;-70
2023/07/12 05:34:45;;;;;;;8.32;3.88;;;20.30;99.90;;;;;;4980113;28;20039;-70
2023/07/12 05:37:11;;;;;;;8.38;3.55;;;20.60;99.90;;;;;;4979715;28;20030;-70
2023/07/12 05:39:37;;;;;;;9.18;3.67;;;20.70;99.90;;;;;;4979758;28;20041;-69
2023/07/12 05:42:03;;;;;;;8.75;4.53;;;20.70;99.90;;;;;;4980407;28;20476;-69
2023/07/12 05:44:29;;;;;;;6.78;3.72;;;20.80;99.90;;;;;;4977301;28;20058;-69
2023/07/12 05:46:54;;;;;;;8.38;3.40;;;21.10;99.90;;;;;;4977084;28;20057;-69
2023/07/12 05:49:20;;;;;;;7.38;3.90;;;21.50;99.90;;;;;;4979742;28;21081;-70
2023/07/12 05:51:46;;;;;;;7.85;4.13;;;21.70;99.90;;;;;;4977574;28;20481;-69
2023/07/12 05:54:14;;;;;;;8.27;3.80;;;21.80;99.90;;;;;;4978801;28;20037;-69
2023/07/12 05:56:40;;;;;;;8.88;4.88;;;21.80;99.90;;;;;;4979818;28;20085;-69
2023/07/12 05:59:06;;;;;;;11.32;3.70;;;21.90;99.90;;;;;;4979366;28;20053;-69
2023/07/12 06:01:31;;;;;;;5.63;3.92;;;21.80;99.90;;;;;;4978459;28;20085;-69
2023/07/12 06:03:57;;;;;;;9.60;4.70;;;21.70;99.90;;;;;;4980847;28;20100;-69
2023/07/12 06:06:23;;;;;;;7.57;4.93;;;21.60;99.90;;;;;;4979979;28;20025;-69
2023/07/12 06:08:49;;;;;;;14.50;6.32;;;21.60;99.90;;;;;;4975416;28;20118;-70
2023/07/12 06:11:15;;;;;;;10.45;4.90;;;21.80;99.90;;;;;;4979433;28;20030;-69
2023/07/12 06:13:41;;;;;;;10.23;4.50;;;21.90;99.90;;;;;;4978633;28;20042;-69
2023/07/12 06:16:06;;;;;;;10.10;5.35;;;21.80;99.90;;;;;;4979289;28;20599;-70
2023/07/12 06:18:32;;;;;;;9.35;4.80;;;21.60;99.90;;;;;;4980253;28;20035;-69
2023/07/12 06:21:01;;;;;;;7.63;4.50;;;21.60;99.90;;;;;;4980006;28;20041;-69
2023/07/12 06:23:29;;;;;;;10.40;5.45;;;21.50;99.90;;;;;;4979308;28;20042;-70
2023/07/12 06:25:58;;;;;;;8.07;4.80;;;21.50;99.90;;;;;;4980260;28;20652;-69
2023/07/12 06:28:24;;;;;;;8.80;4.63;;;21.60;99.90;;;;;;4979028;28;20054;-69
2023/07/12 06:30:50;;;;;;;11.82;5.15;;;21.40;99.90;;;;;;4980471;28;20031;-69
2023/07/12 06:33:16;;;;;;;9.10;5.40;;;21.30;99.90;;;;;;4984302;28;20500;-69
2023/07/12 06:35:42;;;;;;;8.48;4.80;;;21.50;99.90;;;;;;4983164;28;20038;-69
2023/07/12 06:38:08;;;;;;;8.07;4.93;;;21.40;99.90;;;;;;4981902;28;20414;-69
2023/07/12 06:40:33;;;;;;;9.68;4.85;;;21.40;99.90;;;;;;4984181;28;20500;-69
2023/07/12 06:42:59;;;;;;;10.60;5.35;;;21.30;99.90;;;;;;4982690;28;20247;-69
2023/07/12 06:45:25;;;;;;;8.50;4.90;;;21.20;99.90;;;;;;4982386;28;20019;-69
2023/07/12 06:47:51;;;;;;;8.15;4.82;;;21.20;99.90;;;;;;4984291;28;20034;-69
2023/07/12 06:50:17;;;;;;;9.52;4.40;;;21.20;99.90;;;;;;4982470;28;20704;-69
2023/07/12 06:52:42;;;;;;;8.00;4.07;;;21.20;99.90;;;;;;4982655;28;20132;-69
2023/07/12 06:55:09;;;;;;;7.03;4.60;;;21.20;99.90;;;;;;4978611;28;20026;-69
2023/07/12 06:57:35;;;;;;;7.45;4.28;;;21.00;99.90;;;;;;4983328;28;20061;-69
2023/07/12 07:00:08;;;;;;;9.32;4.85;;;21.00;99.90;;;;;;4979823;28;20580;-69
2023/07/12 07:02:34;;;;;;;8.63;5.70;;;21.10;99.90;;;;;;4983860;28;20888;-69
2023/07/12 07:05:00;;;;;;;11.23;5.97;;;21.10;99.90;;;;;;4985759;28;20030;-69
2023/07/12 07:07:27;;;;;;;9.82;6.30;;;21.00;99.90;;;;;;4980448;28;20050;-69
2023/07/12 07:09:53;;;;;;;11.35;6.78;;;21.10;99.90;;;;;;4988485;28;20026;-69
2023/07/12 07:12:18;;;;;;;10.95;5.72;;;21.10;99.90;;;;;;4985269;28;20153;-70
2023/07/12 07:14:44;;;;;;;8.27;5.38;;;21.10;99.90;;;;;;4986378;28;20545;-69
2023/07/12 07:17:13;;;;;;;13.20;6.38;;;21.00;99.90;;;;;;4988752;28;20050;-69
2023/07/12 07:19:38;;;;;;;11.38;6.22;;;21.00;99.90;;;;;;4981453;28;20034;-69
2023/07/12 07:22:06;;;;;;;8.18;5.70;;;21.00;99.90;;;;;;4989776;28;20034;-69
2023/07/12 07:24:32;;;;;;;15.93;7.40;;;20.80;99.90;;;;;;4989273;28;20108;-70
2023/07/12 07:26:57;;;;;;;15.27;6.25;;;20.70;99.90;;;;;;4985892;28;20061;-70
2023/07/12 07:29:23;;;;;;;12.05;5.80;;;20.00;99.90;;;;;;4983129;28;20057;-69
2023/07/12 07:31:49;;;;;;;7.97;3.28;;;19.80;99.90;;;;;;4984285;28;20029;-69
2023/07/12 07:34:14;;;;;;;8.40;3.88;;;19.40;99.90;;;;;;4981057;28;20030;-69
2023/07/12 07:36:41;;;;;;;8.45;3.58;;;19.30;99.90;;;;;;4977346;28;20505;-70
2023/07/12 07:39:07;;;;;;;17.73;4.82;;;19.50;99.90;;;;;;4980825;28;20030;-70
2023/07/12 07:41:33;;;;;;;9.98;4.97;;;19.80;99.90;;;;;;4978890;28;20111;-70
2023/07/12 07:43:59;;;;;;;8.77;4.35;;;20.00;99.90;;;;;;4980104;28;20456;-70
2023/07/12 07:46:25;;;;;;;7.00;4.20;;;20.10;99.90;;;;;;4980607;28;20030;-70
2023/07/12 07:48:51;;;;;;;8.32;4.10;;;20.00;99.90;;;;;;4978604;28;20026;-70
2023/07/12 07:51:17;;;;;;;13.70;4.57;;;20.00;99.90;;;;;;4982056;28;20364;-70
2023/07/12 07:53:43;;;;;;;9.00;3.65;;;19.90;99.90;;;;;;4981472;28;20030;-70
2023/07/12 07:56:09;;;;;;;6.93;3.55;;;20.10;99.90;;;;;;4981777;28;20038;-69
2023/07/12 07:58:35;;;;;;;6.78;3.75;;;20.00;99.90;;;;;;4979946;28;20092;-69
2023/07/12 08:01:01;;;;;;;10.10;4.32;;;20.00;99.90;;;;;;4980052;28;20030;-69
2023/07/12 08:03:27;;;;;;;10.57;4.45;;;20.20;99.90;;;;;;4981751;28;20038;-68
2023/07/12 08:05:53;;;;;;;9.20;4.85;;;20.20;99.90;;;;;;4980179;28;20105;-68
2023/07/12 08:08:20;;;;;;;7.57;5.45;;;20.20;99.90;;;;;;4978897;28;20045;-69
2023/07/12 08:10:46;;;;;;;11.27;4.90;;;20.10;99.90;;;;;;4981419;28;20137;-69
2023/07/12 08:13:12;;;;;;;10.38;5.40;;;20.20;99.90;;;;;;4980204;28;20129;-69
2023/07/12 08:15:38;;;;;;;11.68;4.53;;;20.30;99.90;;;;;;4966776;28;20035;-69
2023/07/12 08:18:04;;;;;;;10.77;4.95;;;20.20;99.90;;;;;;4985791;28;20033;-70
2023/07/12 08:20:30;;;;;;;9.13;4.72;;;20.20;99.90;;;;;;4986514;28;20081;-69
2023/07/12 08:22:56;;;;;;;10.38;5.70;;;20.10;99.90;;;;;;4983962;28;20042;-69
2023/07/12 08:25:21;;;;;;;8.30;4.80;;;20.10;99.90;;;;;;4985751;28;20500;-69
2023/07/12 08:27:47;;;;;;;6.45;3.53;;;20.10;99.90;;;;;;4980304;28;20038;-69
2023/07/12 08:30:14;;;;;;;7.45;3.78;;;20.10;99.90;;;;;;4982980;28;20073;-69
2023/07/12 08:32:40;;;;;;;6.72;3.45;;;20.10;99.90;;;;;;4983710;28;20019;-69
2023/07/12 08:35:06;;;;;;;8.75;3.95;;;20.10;99.90;;;;;;4983448;28;20041;-69
2023/07/12 08:37:32;;;;;;;3.88;2.20;;;20.10;99.90;;;;;;4984317;28;20121;-69
2023/07/12 08:39:58;;;;;;;7.32;2.60;;;20.10;99.90;;;;;;4984201;28;20121;-70
2023/07/12 08:42:27;;;;;;;4.45;1.77;;;20.10;99.90;;;;;;4983669;28;20042;-69
2023/07/12 08:44:56;;;;;;;7.68;2.03;;;20.10;99.90;;;;;;4979490;28;20525;-69
2023/07/12 08:47:40;;;;;;;4.38;2.20;;;20.20;99.90;;;;;;4986475;28;20026;-69
2023/07/12 08:50:13;;;;;;;6.95;2.88;;;20.20;99.90;;;;;;4979987;28;20031;-69
2023/07/12 08:52:40;;;;;;;8.48;3.72;;;20.20;99.90;;;;;;4985357;28;20030;-69
2023/07/12 08:55:14;;;;;;;6.55;3.30;;;20.10;99.90;;;;;;4984377;28;20531;-69
2023/07/12 08:57:41;;;;;;;8.68;3.42;;;20.20;99.90;;;;;;4983690;28;20065;-70
2023/07/12 09:00:12;;;;;;;8.88;3.55;;;20.10;99.90;;;;;;4984798;28;20133;-70
2023/07/12 09:02:38;;;;;;;6.60;3.65;;;20.10;99.90;;;;;;4984577;28;20050;-70
2023/07/12 09:05:21;;;;;;;18.42;3.85;;;20.20;99.90;;;;;;4983217;28;20057;-70
2023/07/12 09:08:04;;;;;;;5.43;2.95;;;20.40;99.90;;;;;;4981660;28;20034;-70
2023/07/12 09:10:44;;;;;;;6.27;2.33;;;20.40;99.90;;;;;;4985693;28;20041;-70
2023/07/12 09:13:12;;;;;;;8.18;2.67;;;20.60;99.90;;;;;;4985320;28;20066;-70
2023/07/12 09:15:46;;;;;;;6.95;2.75;;;20.80;99.90;;;;;;4985702;28;20062;-69
2023/07/12 09:18:30;;;;;;;5.68;2.67;;;20.90;99.90;;;;;;4983132;28;20034;-70
2023/07/12 09:20:59;;;;;;;5.38;2.28;;;21.00;99.90;;;;;;4985521;28;20030;-70
2023/07/12 09:23:25;;;;;;;6.30;2.45;;;21.10;99.90;;;;;;4982714;28;20080;-70
2023/07/12 09:25:56;;;;;;;6.10;2.80;;;21.40;99.90;;;;;;4984777;28;20026;-70
2023/07/12 09:28:23;;;;;;;6.50;2.30;;;21.50;99.90;;;;;;4984377;28;20044;-70
2023/07/12 09:30:53;;;;;;;7.00;2.35;;;21.60;99.90;;;;;;4984538;28;20130;-70
2023/07/12 09:33:25;;;;;;;4.70;2.00;;;21.70;99.90;;;;;;4983391;28;20158;-70
2023/07/12 09:35:51;;;;;;;5.75;2.00;;;22.00;99.90;;;;;;4982308;28;20413;-70
2023/07/12 09:38:23;;;;;;;9.43;2.40;;;22.40;99.90;;;;;;4981371;28;20040;-69
2023/07/12 09:40:50;;;;;;;9.63;2.72;;;22.80;99.90;;;;;;4982258;28;20054;-70
2023/07/12 09:43:20;;;;;;;6.65;2.40;;;23.00;99.90;;;;;;4983664;28;20034;-70
2023/07/12 09:46:06;;;;;;;5.65;2.08;;;23.40;99.90;;;;;;4984603;28;20030;-70
2023/07/12 09:48:36;;;;;;;3.30;1.55;;;23.60;99.90;;;;;;4983112;28;20046;-70
2023/07/12 09:51:26;;;;;;;4.63;2.85;;;23.20;99.90;;;;;;4982953;28;20054;-70
2023/07/12 09:53:56;;;;;;;5.43;2.78;;;23.40;99.90;;;;;;4980178;28;20061;-70
2023/07/12 09:56:49;;;;;;;7.05;3.20;;;23.50;99.90;;;;;;4987022;28;20125;-70
2023/07/12 09:59:18;;;;;;;6.70;2.55;;;23.80;99.90;;;;;;4982249;28;20038;-70
2023/07/12 10:01:51;;;;;;;5.32;2.33;;;23.70;99.90;;;;;;4983032;28;20536;-70
2023/07/12 10:04:38;;;;;;;8.82;3.70;;;23.80;99.90;;;;;;4985207;28;20029;-70
2023/07/12 10:07:14;;;;;;;6.60;2.60;;;23.80;99.90;;;;;;4986484;28;20038;-71
2023/07/12 10:09:44;;;;;;;5.05;2.22;;;24.00;99.90;;;;;;4985622;28;20033;-70
2023/07/12 10:12:31;;;;;;;5.93;2.10;;;24.40;99.90;;;;;;4984068;28;20078;-71
2023/07/12 10:14:57;;;;;;;6.68;2.40;;;24.80;99.90;;;;;;4985949;28;20987;-70
2023/07/12 10:17:36;;;;;;;4.43;2.03;;;24.70;99.90;;;;;;4987179;28;20038;-70
2023/07/12 10:20:04;;;;;;;4.15;2.03;;;25.30;99.90;;;;;;4984342;28;20041;-70
2023/07/12 10:22:40;;;;;;;7.50;2.10;;;25.60;99.90;;;;;;4988481;28;20043;-70
2023/07/12 10:25:20;;;;;;;6.22;1.95;;;25.30;99.90;;;;;;4984662;28;20056;-70
2023/07/12 10:27:55;;;;;;;3.90;2.10;;;25.20;99.90;;;;;;4984375;28;20172;-70
2023/07/12 10:30:26;;;;;;;3.70;1.90;;;25.20;99.90;;;;;;4968503;28;20161;-70
2023/07/12 10:33:25;;;;;;;5.88;2.30;;;24.90;99.90;;;;;;4979537;28;20061;-70
2023/07/12 10:35:59;;;;;;;5.35;2.08;;;25.10;99.90;;;;;;4980826;28;20151;-70
2023/07/12 10:38:25;;;;;;;4.18;2.10;;;25.20;99.90;;;;;;4983425;28;20485;-69
2023/07/12 10:40:56;;;;;;;4.25;1.70;;;25.30;99.90;;;;;;4983058;28;20461;-70
2023/07/12 10:43:33;;;;;;;3.80;1.73;;;25.30;99.90;;;;;;4982493;28;20038;-70
2023/07/12 10:46:09;;;;;;;4.53;2.28;;;25.20;99.90;;;;;;4981783;28;20034;-69
2023/07/12 10:48:39;;;;;;;5.57;2.38;;;25.30;99.90;;;;;;4980578;28;20025;-70
2023/07/12 10:51:35;;;;;;;5.05;2.53;;;25.60;99.90;;;;;;4983385;28;20045;-70
2023/07/12 10:54:02;;;;;;;5.38;2.40;;;25.50;99.90;;;;;;4984559;28;20095;-71
2023/07/12 10:56:35;;;;;;;5.65;2.40;;;25.40;99.90;;;;;;4983286;28;20456;-70
2023/07/12 10:59:33;;;;;;;7.10;2.78;;;25.90;99.90;;;;;;4992245;28;20105;-71
2023/07/12 11:02:04;;;;;;;10.40;2.50;;;26.50;99.90;;;;;;4980537;28;20046;-72
2023/07/12 11:04:30;;;;;;;4.88;2.03;;;26.40;99.90;;;;;;4979532;28;20030;-71
2023/07/12 11:07:02;;;;;;;5.10;2.40;;;26.10;99.90;;;;;;4981425;28;20543;-72
2023/07/12 11:09:49;;;;;;;4.20;2.00;;;25.90;99.90;;;;;;4982836;28;20085;-71
2023/07/12 11:12:36;;;;;;;4.00;2.22;;;25.80;99.90;;;;;;4981676;28;20023;-71
2023/07/12 11:15:27;;;;;;;6.18;2.50;;;26.20;99.90;;;;;;4980039;28;20065;-71
2023/07/12 11:18:09;;;;;;;4.50;2.08;;;26.10;99.90;;;;;;4978023;28;20038;-72
2023/07/12 11:21:02;;;;;;;4.35;2.10;;;26.30;99.90;;;;;;4981569;28;20060;-71
2023/07/12 11:23:29;;;;;;;4.00;1.75;;;26.40;99.90;;;;;;4980027;28;20046;-71
2023/07/12 11:26:05;;;;;;;2.97;1.40;;;26.10;99.90;;;;;;4982187;28;20058;-71
2023/07/12 11:28:44;;;;;;;6.50;2.38;;;26.50;99.90;;;;;;4980665;28;20117;-69
2023/07/12 11:31:26;;;;;;;4.53;1.55;;;26.40;99.90;;;;;;4978930;28;20590;-71
2023/07/12 11:34:19;;;;;;;4.00;1.90;;;26.30;99.90;;;;;;4994014;28;20493;-71
2023/07/12 11:36:52;;;;;;;7.32;2.30;;;26.30;99.90;;;;;;4978398;28;20089;-71
2023/07/12 11:39:21;;;;;;;7.27;2.00;;;26.50;99.90;;;;;;4981403;28;20037;-71
2023/07/12 11:42:00;;;;;;;3.95;2.15;;;26.70;99.90;;;;;;4982352;28;20053;-71
2023/07/12 11:44:26;;;;;;;6.25;2.10;;;26.80;99.90;;;;;;4979834;28;20029;-71
2023/07/12 11:46:52;;;;;;;5.85;1.80;;;26.90;99.90;;;;;;4981262;28;20099;-71
2023/07/12 11:49:21;;;;;;;5.93;2.20;;;26.80;99.90;;;;;;4984346;28;20092;-71
2023/07/12 11:51:54;;;;;;;5.07;1.98;;;26.90;99.90;;;;;;4977955;28;20456;-71
2023/07/12 11:54:23;;;;;;;5.47;1.98;;;26.80;99.90;;;;;;4982049;28;20030;-71
2023/07/12 11:56:51;;;;;;;5.95;2.03;;;26.50;99.90;;;;;;4981598;28;20041;-71
2023/07/12 11:59:20;;;;;;;3.92;2.13;;;26.70;99.90;;;;;;4982425;28;20560;-71
2023/07/12 12:01:48;;;;;;;5.18;1.80;;;26.70;99.90;;;;;;4982692;28;20042;-71
2023/07/12 12:04:30;;;;;;;4.55;1.80;;;26.90;99.90;;;;;;4980007;28;20034;-71
2023/07/12 12:07:12;;;;;;;4.57;2.30;;;26.80;99.90;;;;;;4979229;28;20053;-71
2023/07/12 12:09:38;;;;;;;3.85;1.83;;;26.80;99.90;;;;;;4981573;28;20030;-72
2023/07/12 12:12:07;;;;;;;3.08;1.70;;;26.80;99.90;;;;;;4978884;28;20045;-72
2023/07/12 12:14:40;;;;;;;4.82;1.90;;;26.90;99.90;;;;;;4981139;28;20030;-72
2023/07/12 12:17:37;;;;;;;5.67;1.67;;;26.90;99.90;;;;;;4980360;28;20057;-72
2023/07/12 12:20:16;;;;;;;4.65;2.00;;;27.00;99.90;;;;;;4978605;28;20042;-72
2023/07/12 12:22:50;;;;;;;6.85;2.28;;;27.10;99.90;;;;;;4981262;28;20030;-71
2023/07/12 12:25:18;;;;;;;4.78;2.10;;;27.00;99.90;;;;;;4977436;28;20041;-71
2023/07/12 12:27:46;;;;;;;4.93;1.75;;;27.10;99.90;;;;;;4979616;28;20026;-71
2023/07/12 12:30:15;;;;;;;3.92;2.00;;;27.40;99.90;;;;;;4980051;28;20562;-71
2023/07/12 12:32:43;;;;;;;5.90;1.75;;;27.60;99.90;;;;;;4978822;28;20030;-71
2023/07/12 12:35:13;;;;;;;4.35;2.05;;;27.30;99.90;;;;;;4982221;28;20022;-71
2023/07/12 12:37:40;;;;;;;7.25;1.60;;;27.70;99.90;;;;;;4983153;28;20392;-71
2023/07/12 12:40:17;;;;;;;5.70;1.70;;;27.80;99.90;;;;;;4984924;28;20036;-71
2023/07/12 12:43:01;;;;;;;4.18;2.03;;;27.80;99.90;;;;;;4983228;28;20129;-71
2023/07/12 12:45:31;;;;;;;4.15;1.70;;;27.90;99.90;;;;;;4998154;28;20045;-71
2023/07/12 12:47:57;;;;;;;3.38;1.98;;;27.80;99.90;;;;;;4983343;28;20034;-71
2023/07/12 12:50:23;;;;;;;4.18;1.50;;;27.80;99.90;;;;;;4983531;28;20029;-72
2023/07/12 12:52:49;;;;;;;3.88;1.42;;;28.10;99.90;;;;;;4982706;28;20062;-71
2023/07/12 12:55:15;;;;;;;4.07;2.00;;;27.90;99.80;;;;;;4983810;28;20030;-71